Time;durP1;ratioP1;P1;durP2;ratioP2;P2;SDS_P1;SDS_P2;PMS_P1;PMS_P2;Temp;Humidity;BMP_temperature;BMP_pressure;BME280_temperature;BME280_humidity;BME280_pressure;Samples;Min_cycle;Max_cycle;Signal;HPM_P1;HPM_P2
2022/12/05 00:01:48;;;;;;;11.77;9.13;;;;;;;9.19;100.00;98939.66;4997856;28;20042;-93
2022/12/05 00:04:14;;;;;;;17.13;9.80;;;;;;;9.21;100.00;98945.81;4999084;28;20046;-92
2022/12/05 00:06:42;;;;;;;14.10;9.48;;;;;;;9.29;100.00;98968.69;4997729;28;20092;-92
2022/12/05 00:09:09;;;;;;;13.57;9.47;;;;;;;9.02;100.00;98944.41;4998766;28;20054;-93
2022/12/05 00:11:40;;;;;;;14.13;9.25;;;;;;;8.99;100.00;98937.38;5001259;28;20046;-92
2022/12/05 00:14:08;;;;;;;14.60;9.10;;;;;;;9.10;100.00;98945.16;4998433;28;20041;-92
2022/12/05 00:16:36;;;;;;;13.93;8.45;;;;;;;9.25;100.00;98966.09;5000445;28;20132;-92
2022/12/05 00:19:05;;;;;;;12.90;9.20;;;;;;;9.09;100.00;98959.34;5000032;28;20053;-91
2022/12/05 00:21:33;;;;;;;14.43;8.18;;;;;;;9.19;100.00;98979.47;4998566;28;20073;-92
2022/12/05 00:24:00;;;;;;;13.63;8.50;;;;;;;9.04;100.00;98956.75;5013811;28;20038;-93
2022/12/05 00:26:27;;;;;;;12.55;7.95;;;;;;;9.03;100.00;98951.47;4999217;28;20041;-92
2022/12/05 00:28:53;;;;;;;14.43;7.63;;;;;;;9.21;100.00;98982.09;4996162;28;20461;-94
2022/12/05 00:31:22;;;;;;;14.00;7.75;;;;;;;9.11;100.00;98960.19;4996552;28;20134;-92
2022/12/05 00:33:49;;;;;;;10.90;7.13;;;;;;;9.18;100.00;98976.84;4996620;28;20554;-91
2022/12/05 00:36:18;;;;;;;10.90;6.80;;;;;;;9.06;100.00;98956.72;4998339;28;20038;-93
2022/12/05 00:38:44;;;;;;;13.07;7.00;;;;;;;9.14;100.00;98951.28;5000686;28;20155;-92
2022/12/05 00:41:12;;;;;;;12.07;6.80;;;;;;;9.16;100.00;98947.69;5001379;28;20037;-92
2022/12/05 00:43:38;;;;;;;9.35;6.68;;;;;;;9.20;100.00;98973.28;4997254;28;20618;-95
2022/12/05 00:46:06;;;;;;;10.45;6.20;;;;;;;9.16;100.00;98966.25;4999559;28;20046;-93
2022/12/05 00:48:32;;;;;;;9.38;6.07;;;;;;;9.09;100.00;98932.81;4999666;28;20038;-93
2022/12/05 00:51:04;;;;;;;13.02;5.53;;;;;;;9.19;100.00;98954.72;4997575;28;20092;-92
2022/12/05 00:53:32;;;;;;;12.20;6.30;;;;;;;9.14;100.00;98957.47;4997470;28;20065;-93
2022/12/05 00:56:01;;;;;;;9.80;6.45;;;;;;;9.03;100.00;98960.31;4997846;28;20415;-93
2022/12/05 00:58:27;;;;;;;8.05;5.63;;;;;;;9.11;100.00;98989.38;4996306;28;20096;-92
2022/12/05 01:00:52;;;;;;;10.63;5.82;;;;;;;9.01;100.00;98971.84;4994610;28;20042;-93
2022/12/05 01:03:18;;;;;;;11.77;6.50;;;;;;;9.05;100.00;98985.03;4996084;28;20038;-95
2022/12/05 01:05:44;;;;;;;13.57;7.28;;;;;;;9.12;100.00;99001.72;4996067;28;20037;-93
2022/12/05 01:08:10;;;;;;;8.73;5.78;;;;;;;9.08;100.00;98993.84;4995893;28;20042;-93
2022/12/05 01:10:37;;;;;;;10.98;5.03;;;;;;;9.05;100.00;98992.13;4994826;28;20084;-92
2022/12/05 01:13:03;;;;;;;9.80;5.65;;;;;;;9.25;100.00;98997.94;4994876;28;20133;-92
2022/12/05 01:15:29;;;;;;;9.85;4.90;;;;;;;9.31;100.00;98993.44;4994783;28;20038;-92
2022/12/05 01:17:55;;;;;;;11.38;5.40;;;;;;;9.35;100.00;98984.50;4995293;28;20077;-93
2022/12/05 01:20:21;;;;;;;10.40;4.90;;;;;;;9.53;100.00;99007.16;4996160;28;20048;-92
2022/12/05 01:22:47;;;;;;;12.52;5.50;;;;;;;9.50;100.00;98996.59;4996871;28;20042;-92
2022/12/05 01:25:13;;;;;;;11.63;5.70;;;;;;;9.63;100.00;99014.94;4996005;28;20045;-94
2022/12/05 01:27:40;;;;;;;12.60;5.18;;;;;;;9.58;100.00;99006.16;4998095;28;20137;-94
2022/12/05 01:30:07;;;;;;;7.93;5.30;;;;;;;9.61;100.00;99002.59;4996258;28;20065;-94
2022/12/05 01:32:33;;;;;;;11.43;5.35;;;;;;;9.60;100.00;98987.56;4996429;28;20129;-94
2022/12/05 01:34:59;;;;;;;11.48;5.22;;;;;;;9.69;100.00;98991.81;5003614;28;20037;-93
2022/12/05 01:37:25;;;;;;;9.25;5.13;;;;;;;9.66;100.00;98963.53;4996764;28;20042;-93
2022/12/05 01:39:51;;;;;;;11.60;4.95;;;;;;;9.57;100.00;98980.53;4996856;28;20042;-95
2022/12/05 01:42:17;;;;;;;10.57;6.05;;;;;;;9.44;100.00;98973.72;4997033;28;20046;-91
2022/12/05 01:45:04;;;;;;;10.38;5.45;;;;;;;9.52;100.00;99000.09;4996779;28;20066;-92
2022/12/05 01:47:34;;;;;;;10.13;5.88;;;;;;;9.39;100.00;98989.72;4994764;28;20053;-94
2022/12/05 01:50:00;;;;;;;17.83;5.85;;;;;;;9.40;100.00;98990.59;4996674;28;20053;-93
2022/12/05 01:52:29;;;;;;;10.60;5.50;;;;;;;9.44;100.00;99008.22;4996646;28;20037;-92
2022/12/05 01:54:59;;;;;;;12.60;5.60;;;;;;;9.50;100.00;98972.69;4994816;28;20092;-92
2022/12/05 01:57:25;;;;;;;11.02;5.68;;;;;;;9.41;100.00;98972.00;4996342;28;20045;-93
2022/12/05 01:59:57;;;;;;;9.43;5.18;;;;;;;9.49;100.00;98994.84;4996768;28;20149;-92
2022/12/05 02:02:26;;;;;;;10.68;5.40;;;;;;;9.42;100.00;98988.78;4995568;28;20038;-93
2022/12/05 02:05:02;;;;;;;9.05;5.07;;;;;;;9.36;100.00;98989.78;4996261;28;20041;-93
2022/12/05 02:07:28;;;;;;;9.20;5.38;;;;;;;9.25;100.00;98975.84;4995448;28;20516;-92
2022/12/05 02:09:54;;;;;;;15.02;5.43;;;;;;;9.40;100.00;98988.81;4996134;28;20042;-93
2022/12/05 02:12:21;;;;;;;15.00;6.22;;;;;;;9.33;100.00;98971.25;4996330;28;20038;-93
2022/12/05 02:14:58;;;;;;;12.05;5.68;;;;;;;9.35;100.00;98985.38;4996750;28;20517;-93
2022/12/05 02:17:31;;;;;;;9.80;6.03;;;;;;;9.25;100.00;98976.69;4989593;28;20136;-93
2022/12/05 02:20:13;;;;;;;9.27;6.25;;;;;;;9.34;100.00;98996.88;5013411;28;20503;-93
2022/12/05 02:23:21;;;;;;;12.70;5.90;;;;;;;9.36;100.00;98995.06;4994992;28;20068;-93
2022/12/05 02:26:25;;;;;;;9.68;5.90;;;;;;;9.38;100.00;99003.88;4951607;28;20054;-93
2022/12/05 02:29:35;;;;;;;10.82;5.60;;;;;;;9.41;100.00;99014.47;4937801;28;20175;-93
2022/12/05 02:32:09;;;;;;;13.32;5.93;;;;;;;9.30;100.00;98983.72;4896540;29;20072;-93
2022/12/05 02:34:43;;;;;;;13.02;6.05;;;;;;;9.38;100.00;99011.84;4862501;29;20045;-93
2022/12/05 02:37:13;;;;;;;9.48;5.63;;;;;;;9.35;100.00;99005.75;4880532;29;20085;-93
2022/12/05 02:39:47;;;;;;;11.15;5.97;;;;;;;9.31;100.00;99004.91;4866337;29;20045;-93
2022/12/05 02:42:20;;;;;;;10.90;5.57;;;;;;;9.49;100.00;99005.47;4881899;29;20187;-93
2022/12/05 02:44:51;;;;;;;10.73;5.53;;;;;;;9.68;100.00;98995.38;4896899;29;20128;-92
2022/12/05 02:47:23;;;;;;;11.18;6.05;;;;;;;9.53;100.00;98983.28;4865056;29;20569;-92
2022/12/05 02:49:51;;;;;;;10.90;5.53;;;;;;;9.39;100.00;98979.13;4881513;29;20053;-92
2022/12/05 02:52:18;;;;;;;11.67;5.83;;;;;;;9.43;100.00;98990.53;4866040;29;20166;-93
2022/12/05 02:54:47;;;;;;;12.85;5.63;;;;;;;9.40;100.00;98979.97;4881187;29;20068;-93
2022/12/05 02:57:14;;;;;;;14.40;6.30;;;;;;;9.32;100.00;98973.94;4881270;29;20047;-92
2022/12/05 02:59:40;;;;;;;12.25;6.13;;;;;;;9.34;100.00;98974.78;4881091;29;20423;-92
2022/12/05 03:02:08;;;;;;;8.98;5.45;;;;;;;9.26;100.00;98956.38;4929002;29;20143;-91
2022/12/05 03:04:36;;;;;;;12.88;5.90;;;;;;;9.18;100.00;98967.13;4921532;29;20050;-92
2022/12/05 03:07:07;;;;;;;12.55;5.72;;;;;;;9.24;100.00;98980.28;4920297;29;20039;-92
2022/12/05 03:09:36;;;;;;;10.82;5.13;;;;;;;9.18;100.00;98972.41;4993477;28;20394;-92
2022/12/05 03:12:08;;;;;;;10.75;5.20;;;;;;;9.16;100.00;98973.34;4999244;28;20522;-92
2022/12/05 03:14:39;;;;;;;10.30;4.97;;;;;;;9.16;100.00;98973.34;4998886;28;20042;-92
2022/12/05 03:17:09;;;;;;;10.15;5.10;;;;;;;9.22;100.00;98982.06;4998220;28;20520;-92
2022/12/05 03:19:44;;;;;;;8.18;4.60;;;;;;;9.23;100.00;98983.81;4998001;28;20042;-92
2022/12/05 03:22:17;;;;;;;8.30;5.32;;;;;;;9.32;100.00;98996.03;4995559;28;20046;-92
2022/12/05 03:24:43;;;;;;;10.80;4.55;;;;;;;9.32;100.00;98996.03;4998643;28;20041;-92
2022/12/05 03:27:19;;;;;;;9.80;4.40;;;;;;;9.21;100.00;98988.28;4998726;28;20088;-92
2022/12/05 03:29:50;;;;;;;10.38;4.72;;;;;;;9.19;100.00;98981.25;4998420;28;20057;-91
2022/12/05 03:32:21;;;;;;;14.30;4.28;;;;;;;9.16;100.00;98976.88;5000022;28;20133;-92
2022/12/05 03:34:58;;;;;;;7.30;3.80;;;;;;;9.32;100.00;99005.78;4998642;28;20367;-93
2022/12/05 03:37:30;;;;;;;8.18;4.07;;;;;;;9.24;100.00;98990.88;4982282;28;20066;-92
2022/12/05 03:40:04;;;;;;;17.23;5.15;;;;;;;9.41;100.00;99011.81;5006581;28;20510;-93
2022/12/05 03:42:34;;;;;;;10.18;4.70;;;;;;;9.37;100.00;99007.47;4996370;28;20073;-92
2022/12/05 03:45:05;;;;;;;9.00;4.25;;;;;;;9.38;100.00;98990.63;4995817;28;20073;-92
2022/12/05 03:47:40;;;;;;;8.95;3.55;;;;;;;9.17;100.00;98964.47;4996141;28;20077;-93
2022/12/05 03:50:13;;;;;;;7.82;4.10;;;;;;;9.34;100.00;99001.31;4996251;28;20042;-93
2022/12/05 03:52:44;;;;;;;7.55;3.90;;;;;;;9.36;100.00;99000.38;4996100;28;20046;-92
2022/12/05 03:55:13;;;;;;;8.85;5.10;;;;;;;9.50;100.00;98968.28;4997179;28;20105;-93
2022/12/05 03:57:45;;;;;;;10.07;4.60;;;;;;;9.40;100.00;98972.03;4996253;28;20046;-93
2022/12/05 04:00:15;;;;;;;9.65;4.80;;;;;;;9.29;100.00;98981.97;4995878;28;20069;-93
2022/12/05 04:02:48;;;;;;;14.63;5.13;;;;;;;9.21;100.00;98977.66;4996067;28;20050;-93
2022/12/05 04:05:21;;;;;;;12.32;5.05;;;;;;;9.38;100.00;99003.03;4996303;28;20050;-92
2022/12/05 04:07:53;;;;;;;9.52;5.18;;;;;;;9.28;100.00;99002.31;4996752;28;20046;-92
2022/12/05 04:10:24;;;;;;;8.32;4.70;;;;;;;9.29;100.00;98984.63;4996492;28;20046;-93
2022/12/05 04:12:53;;;;;;;10.25;4.65;;;;;;;9.30;100.00;98989.88;4996744;28;20042;-94
2022/12/05 04:15:24;;;;;;;10.85;4.40;;;;;;;9.30;100.00;98997.84;4996304;28;20093;-93
2022/12/05 04:17:54;;;;;;;6.38;4.22;;;;;;;9.29;100.00;98992.59;4996404;28;20104;-94
2022/12/05 04:23:28;;;;;;;7.95;3.97;;;;;;;9.43;100.00;99022.38;5065619;28;20363;-92
2022/12/05 04:26:03;;;;;;;10.27;4.63;;;;;;;9.47;100.00;99029.38;5064891;28;20406;-93
2022/12/05 04:28:35;;;;;;;6.45;4.00;;;;;;;9.44;100.00;99021.50;5032535;28;20103;-94
2022/12/05 04:31:06;;;;;;;8.70;3.95;;;;;;;9.29;100.00;98993.44;5031674;28;20414;-93
2022/12/05 04:33:40;;;;;;;8.20;4.18;;;;;;;9.55;100.00;99027.47;5031732;28;20049;-93
2022/12/05 04:36:12;;;;;;;10.43;3.70;;;;;;;9.55;100.00;99030.13;5031346;28;20042;-92
2022/12/05 04:38:44;;;;;;;8.45;3.72;;;;;;;9.51;100.00;99039.06;5031156;28;20053;-92
2022/12/05 04:41:15;;;;;;;8.43;3.80;;;;;;;9.30;100.00;99004.94;5031229;28;20108;-93
2022/12/05 04:43:43;;;;;;;7.15;3.85;;;;;;;9.43;100.00;99030.34;5031093;28;20076;-92
2022/12/05 04:46:11;;;;;;;10.90;4.28;;;;;;;9.60;100.00;99030.03;5031275;28;20140;-92
2022/12/05 04:48:39;;;;;;;7.80;3.93;;;;;;;9.64;100.00;99034.38;5031203;28;20100;-92
2022/12/05 04:51:08;;;;;;;11.07;4.40;;;;;;;9.62;100.00;99045.03;5031373;28;20034;-92
2022/12/05 04:53:35;;;;;;;9.33;4.83;;;;;;;9.49;100.00;99027.59;5032001;28;20090;-94
2022/12/05 04:56:04;;;;;;;7.95;4.20;;;;;;;9.39;100.00;99013.63;5032576;28;20050;-95
2022/12/05 04:58:31;;;;;;;8.98;4.68;;;;;;;9.34;100.00;99012.81;5032105;28;20041;-94
2022/12/05 05:01:04;;;;;;;9.70;4.57;;;;;;;9.44;100.00;99040.94;5033714;28;20050;-94
2022/12/05 05:03:34;;;;;;;9.23;4.10;;;;;;;9.22;100.00;99007.75;5033462;28;20121;-95
2022/12/05 05:06:01;;;;;;;10.70;4.30;;;;;;;9.37;100.00;99033.13;5036173;28;20042;-94
2022/12/05 05:08:28;;;;;;;7.53;4.47;;;;;;;9.21;100.00;99012.16;5036972;28;20054;-93
2022/12/05 05:11:08;;;;;;;7.63;4.22;;;;;;;9.18;100.00;98996.31;5036894;28;20394;-94
2022/12/05 05:13:34;;;;;;;15.65;5.22;;;;;;;9.15;100.00;98996.38;5037682;28;20140;-94
2022/12/05 05:16:00;;;;;;;8.70;4.53;;;;;;;9.15;100.00;99000.78;5036198;28;20070;-94
2022/12/05 05:18:26;;;;;;;10.35;4.55;;;;;;;9.12;100.00;98990.22;5070487;28;20487;-94
2022/12/05 05:20:52;;;;;;;9.40;4.57;;;;;;;9.14;100.00;98984.00;5036539;28;20243;-94
2022/12/05 05:23:18;;;;;;;9.50;4.97;;;;;;;9.13;100.00;98994.63;5053584;28;20505;-94
2022/12/05 05:25:46;;;;;;;10.98;4.60;;;;;;;9.37;100.00;99003.94;5055947;28;20041;-94
2022/12/05 05:28:14;;;;;;;9.30;4.30;;;;;;;9.34;100.00;98980.97;5054531;28;20095;-93
2022/12/05 05:30:40;;;;;;;11.20;4.47;;;;;;;9.27;100.00;98976.69;5059959;28;20498;-95
2022/12/05 05:33:06;;;;;;;10.68;4.22;;;;;;;9.28;100.00;98978.41;5053591;28;20118;-95
2022/12/05 05:35:35;;;;;;;8.32;3.75;;;;;;;9.31;100.00;99004.03;5045126;28;20049;-94
2022/12/05 05:38:01;;;;;;;14.20;4.53;;;;;;;9.19;100.00;98986.56;5042184;28;20409;-95
2022/12/05 05:40:27;;;;;;;8.45;4.03;;;;;;;9.36;100.00;99034.03;5041783;28;20144;-94
2022/12/05 05:42:53;;;;;;;9.35;4.07;;;;;;;9.15;100.00;98985.75;5042319;28;20064;-94
2022/12/05 05:45:21;;;;;;;8.82;3.72;;;;;;;9.29;100.00;99013.81;5042355;28;20126;-95
2022/12/05 05:47:47;;;;;;;5.70;3.55;;;;;;;9.20;100.00;99005.09;5039628;28;20045;-94
2022/12/05 05:50:14;;;;;;;11.38;4.25;;;;;;;9.22;100.00;99013.91;5038920;28;20498;-95
2022/12/05 05:52:40;;;;;;;11.75;4.50;;;;;;;9.31;100.00;99027.94;5038675;28;20034;-95
2022/12/05 05:55:07;;;;;;;9.65;4.00;;;;;;;9.23;100.00;99023.63;5038319;28;20087;-94
2022/12/05 05:57:33;;;;;;;11.00;3.92;;;;;;;9.28;100.00;99038.59;5036350;28;20068;-93
2022/12/05 06:00:00;;;;;;;9.02;4.80;;;;;;;9.29;100.00;99050.97;5036879;28;20045;-94
2022/12/05 06:02:31;;;;;;;10.60;4.38;;;;;;;9.12;100.00;99022.94;5037190;28;20371;-94
2022/12/05 06:04:57;;;;;;;9.68;4.35;;;;;;;9.14;100.00;99034.41;5037336;28;20049;-94
2022/12/05 06:07:23;;;;;;;9.98;3.88;;;;;;;9.22;100.00;99035.16;5038197;28;20056;-94
2022/12/05 06:09:48;;;;;;;9.38;4.10;;;;;;;9.13;100.00;99018.50;5038458;28;20041;-95
2022/12/05 06:12:14;;;;;;;10.40;4.15;;;;;;;9.34;100.00;99022.56;5039369;28;20041;-93
2022/12/05 06:14:40;;;;;;;9.32;4.15;;;;;;;9.28;100.00;99025.31;5038791;28;20045;-95
2022/12/05 06:17:06;;;;;;;9.05;4.75;;;;;;;9.20;100.00;99018.38;5037038;28;20049;-95
2022/12/05 06:19:34;;;;;;;7.75;3.92;;;;;;;9.15;100.00;99022.91;5038943;28;20038;-93
2022/12/05 06:22:00;;;;;;;8.15;4.00;;;;;;;9.23;100.00;99047.50;5038667;28;20132;-94
2022/12/05 06:24:26;;;;;;;7.88;3.92;;;;;;;9.19;100.00;99051.09;5037909;28;20075;-94
2022/12/05 06:26:51;;;;;;;12.52;3.80;;;;;;;9.19;100.00;99056.41;5036189;28;20049;-94
2022/12/05 06:29:17;;;;;;;9.13;3.70;;;;;;;9.27;100.00;99068.69;5035938;28;20041;-94
2022/12/05 06:31:43;;;;;;;5.53;3.55;;;;;;;9.14;100.00;99037.03;5035899;28;20140;-94
2022/12/05 06:34:09;;;;;;;8.20;3.53;;;;;;;9.28;100.00;99062.47;5037028;28;20164;-93
2022/12/05 06:36:37;;;;;;;11.02;3.67;;;;;;;9.30;100.00;99074.81;5036202;28;20050;-94
2022/12/05 06:39:03;;;;;;;9.05;3.33;;;;;;;9.34;100.00;99080.94;5036467;28;20041;-92
2022/12/05 06:41:29;;;;;;;9.07;3.90;;;;;;;9.24;100.00;99064.31;5035294;28;20046;-94
2022/12/05 06:43:57;;;;;;;6.88;3.95;;;;;;;9.21;100.00;99056.38;5037624;28;20132;-95
2022/12/05 06:46:24;;;;;;;10.23;4.15;;;;;;;9.25;100.00;99058.97;5037089;28;20458;-93
2022/12/05 06:48:52;;;;;;;8.50;3.90;;;;;;;9.31;100.00;99065.97;5035650;28;20117;-95
2022/12/05 06:51:19;;;;;;;12.10;4.55;;;;;;;9.37;100.00;99080.91;5035952;28;20049;-93
2022/12/05 06:53:46;;;;;;;7.25;4.38;;;;;;;9.44;100.00;99101.13;5034897;28;20046;-93
2022/12/05 06:56:14;;;;;;;8.65;4.90;;;;;;;9.45;100.00;99105.53;5035736;28;20046;-93
2022/12/05 06:58:40;;;;;;;8.75;4.50;;;;;;;9.37;100.00;99088.88;5035464;28;20042;-93
2022/12/05 07:04:14;;;;;;;10.02;4.13;;;;;;;9.49;100.00;99104.56;5153967;27;20358;-93
2022/12/05 07:06:41;;;;;;;10.05;4.68;;;;;;;9.46;100.00;99102.84;5153527;27;20066;-93
2022/12/05 07:09:07;;;;;;;8.45;3.95;;;;;;;9.37;100.00;99075.59;5153513;27;20099;-93
2022/12/05 07:11:33;;;;;;;11.27;4.18;;;;;;;9.47;100.00;99093.09;5152723;27;20047;-93
2022/12/05 07:13:59;;;;;;;7.57;3.65;;;;;;;9.41;100.00;99086.13;5152587;27;20089;-93
2022/12/05 07:16:25;;;;;;;14.00;4.00;;;;;;;9.52;100.00;99096.56;5152261;27;20035;-93
2022/12/05 07:18:51;;;;;;;9.02;4.30;;;;;;;9.46;100.00;99086.06;5152735;27;20103;-93
2022/12/05 07:21:20;;;;;;;11.25;4.93;;;;;;;9.48;100.00;99081.59;5152166;27;20038;-93
2022/12/05 07:23:50;;;;;;;11.23;5.50;;;;;;;9.65;100.00;99108.72;5152678;27;20035;-93
2022/12/05 07:26:18;;;;;;;11.98;5.10;;;;;;;9.52;100.00;99085.94;5152580;27;20054;-93
2022/12/05 07:28:44;;;;;;;8.45;4.30;;;;;;;9.68;100.00;99113.09;5153076;27;20157;-93
2022/12/05 07:31:11;;;;;;;15.10;8.38;;;;;;;9.60;100.00;99110.56;5152736;27;20125;-92
2022/12/05 07:33:37;;;;;;;14.65;7.93;;;;;;;9.59;100.00;99113.25;5157352;27;20035;-93
2022/12/05 07:36:05;;;;;;;15.15;8.88;;;;;;;9.68;100.00;99114.88;5151551;27;20045;-92
2022/12/05 07:38:33;;;;;;;10.85;7.32;;;;;;;9.58;100.00;99082.28;5151135;27;20043;-93
2022/12/05 07:40:59;;;;;;;13.77;6.95;;;;;;;9.71;100.00;99102.41;5152032;27;20043;-93
2022/12/05 07:43:25;;;;;;;13.82;5.13;;;;;;;9.93;100.00;99129.47;5151702;27;20031;-94
2022/12/05 07:45:50;;;;;;;13.98;4.95;;;;;;;9.75;100.00;99092.59;5151290;27;20100;-94
2022/12/05 07:48:16;;;;;;;11.25;5.00;;;;;;;9.83;100.00;99096.00;5151609;27;20035;-93
2022/12/05 07:50:42;;;;;;;18.33;5.22;;;;;;;10.04;100.00;99110.63;5151640;27;20053;-91
2022/12/05 07:53:08;;;;;;;9.63;4.40;;;;;;;10.17;100.00;99127.22;5149976;27;20043;-92
2022/12/05 07:55:36;;;;;;;11.18;5.13;;;;;;;10.18;100.00;99124.53;5149944;27;20038;-92
2022/12/05 07:58:02;;;;;;;8.63;4.15;;;;;;;10.05;100.00;99107.09;5149530;27;20046;-93
2022/12/05 08:00:28;;;;;;;8.98;4.03;;;;;;;10.28;100.00;99149.16;5152590;27;20035;-90
2022/12/05 08:02:57;;;;;;;10.98;4.00;;;;;;;10.22;100.00;99139.53;5154506;27;20123;-92
2022/12/05 08:05:23;;;;;;;;;;;;;;;10.37;100.00;99148.16;5156215;27;20122;-93
2022/12/05 08:07:59;;;;;;;12.98;4.97;;;;;;;10.08;100.00;99101.69;5155850;27;19950;-94
2022/12/05 08:10:25;;;;;;;11.93;5.50;;;;;;;10.23;100.00;99121.78;5155935;27;20035;-94
2022/12/05 08:13:40;;;;;;;10.32;5.68;;;;;;;10.10;100.00;99099.03;5157275;27;20035;-93
2022/12/05 08:16:15;;;;;;;7.65;4.60;;;;;;;10.27;100.00;99126.13;5146243;27;20551;-93
2022/12/05 08:19:15;;;;;;;16.33;5.13;;;;;;;10.24;100.00;99099.63;5146619;27;20559;-94
2022/12/05 08:21:54;;;;;;;15.52;5.55;;;;;;;10.32;100.00;99110.13;5145772;27;20047;-93
2022/12/05 08:24:38;;;;;;;13.63;5.60;;;;;;;10.50;100.00;99135.47;5146875;27;20065;-94
2022/12/05 08:27:10;;;;;;;13.52;5.05;;;;;;;10.37;100.00;99114.44;5146837;27;20035;-92
2022/12/05 08:30:13;;;;;;;13.00;4.28;;;;;;;10.59;100.00;99137.94;5138907;27;20116;-93
2022/12/05 08:33:01;;;;;;;;;;;;;;;;;;;;;
2022/12/05 08:35:37;;;;;;;18.33;5.20;;;;;;;10.86;100.00;99123.13;5144257;27;20053;-94
2022/12/05 08:38:06;;;;;;;15.73;5.22;;;;;;;11.14;100.00;99152.66;5127006;27;20071;-95
2022/12/05 08:40:41;;;;;;;12.23;4.80;;;;;;;11.28;100.00;99163.88;5143781;27;20396;-93
2022/12/05 08:43:14;;;;;;;12.55;5.85;;;;;;;11.30;100.00;99127.44;5142917;27;20088;-94
2022/12/05 08:45:51;;;;;;;12.45;5.35;;;;;;;11.41;100.00;99120.97;5144422;27;20039;-93
2022/12/05 08:48:18;;;;;;;12.98;4.60;;;;;;;11.78;100.00;99131.56;5142739;27;20036;-95
2022/12/05 08:50:44;;;;;;;8.80;3.83;;;;;;;12.21;100.00;99145.53;5143024;27;20444;-93
2022/12/05 08:53:19;;;;;;;15.73;5.15;;;;;;;12.43;99.94;99121.84;5143624;27;20506;-94
2022/12/05 08:55:59;;;;;;;11.20;4.60;;;;;;;12.73;99.29;99136.06;5143276;27;20045;-93
2022/12/05 08:58:39;;;;;;;10.23;4.32;;;;;;;12.58;97.07;99123.16;5145075;27;20065;-93
2022/12/05 09:01:11;;;;;;;12.30;4.50;;;;;;;12.54;98.54;99128.59;5142404;27;20039;-93
2022/12/05 09:03:48;;;;;;;9.65;3.85;;;;;;;12.72;99.96;99163.66;5143237;27;20510;-93
2022/12/05 09:06:40;;;;;;;10.88;4.53;;;;;;;12.72;96.39;99134.28;5134327;27;20039;-93
2022/12/05 09:09:26;;;;;;;9.30;4.70;;;;;;;12.63;94.75;99131.91;5144999;27;20495;-94
2022/12/05 09:15:23;;;;;;;12.82;3.90;;;;;;;12.92;94.29;99129.25;5125455;27;20115;-94
2022/12/05 09:17:57;;;;;;;10.82;3.50;;;;;;;13.05;94.82;99137.72;5145171;27;20039;-94
2022/12/05 09:21:30;;;;;;;11.05;3.65;;;;;;;12.93;92.10;99136.31;5140899;27;20039;-93
2022/12/05 09:24:41;;;;;;;11.75;4.20;;;;;;;12.81;93.57;99139.34;5065618;28;20130;-92
2022/12/05 09:27:31;;;;;;;15.13;3.75;;;;;;;12.83;90.28;99124.16;5141373;27;20050;-94
2022/12/05 09:30:10;;;;;;;12.98;4.15;;;;;;;12.90;92.62;99124.84;5143925;27;20043;-94
2022/12/05 09:32:43;;;;;;;8.73;3.53;;;;;;;12.93;92.68;99157.66;5143138;27;20119;-92
2022/12/05 09:35:17;;;;;;;10.00;2.90;;;;;;;12.79;89.50;99140.31;5142250;27;20550;-93
2022/12/05 09:37:57;;;;;;;11.55;4.63;;;;;;;12.46;91.85;99127.06;5144030;27;20150;-93
2022/12/05 09:41:01;;;;;;;12.13;3.70;;;;;;;12.28;94.96;99118.69;5142984;27;20039;-96
2022/12/05 09:43:34;;;;;;;12.07;3.63;;;;;;;12.28;96.83;99155.13;5138068;27;20053;-94
2022/12/05 09:46:31;;;;;;;;;;;;;;;;;;;;;
2022/12/05 09:49:04;;;;;;;9.23;3.55;;;;;;;11.96;94.97;99114.22;5141393;27;20054;-94
2022/12/05 09:51:45;;;;;;;13.00;3.20;;;;;;;12.00;93.77;99120.38;5141052;27;20054;-94
2022/12/05 09:54:22;;;;;;;11.18;4.28;;;;;;;12.02;94.81;99121.19;5143936;27;20051;-95
2022/12/05 09:56:52;;;;;;;12.98;3.28;;;;;;;12.05;94.12;99113.09;5139628;27;20072;-94
2022/12/05 09:59:38;;;;;;;16.05;3.88;;;;;;;12.17;94.48;99107.44;5141951;27;20051;-96
2022/12/05 10:02:30;;;;;;;17.00;5.03;;;;;;;12.20;95.49;99098.47;5141675;27;20112;-93
2022/12/05 10:05:19;;;;;;;10.43;4.10;;;;;;;12.21;95.63;99109.13;5142196;27;20404;-96
2022/12/05 10:07:57;;;;;;;8.30;3.78;;;;;;;12.28;94.61;99104.47;5136957;27;20035;-93
2022/12/05 10:10:33;;;;;;;14.07;4.38;;;;;;;12.28;94.61;99091.16;5133272;27;20043;-92
2022/12/05 10:13:13;;;;;;;6.10;3.70;;;;;;;12.42;95.40;99104.06;5130654;27;20035;-94
2022/12/05 10:15:43;;;;;;;7.35;3.10;;;;;;;12.52;96.76;99119.75;5131752;27;20031;-92
2022/12/05 10:18:28;;;;;;;18.00;6.22;;;;;;;12.40;96.46;99093.44;5134668;27;20138;-94
2022/12/05 10:20:59;;;;;;;14.48;5.10;;;;;;;12.50;95.91;99094.91;5133043;27;20039;-94
2022/12/05 10:23:48;;;;;;;13.00;4.32;;;;;;;12.77;95.68;99119.00;5133332;27;20027;-93
2022/12/05 10:26:16;;;;;;;8.98;3.60;;;;;;;12.75;96.40;99112.84;5133728;27;20047;-91
2022/12/05 10:28:50;;;;;;;12.05;4.07;;;;;;;12.70;95.71;99083.63;5133837;27;20035;-94
2022/12/05 10:31:21;;;;;;;10.07;4.78;;;;;;;12.76;94.80;99082.59;5132666;27;20035;-94
2022/12/05 10:33:56;;;;;;;18.50;6.75;;;;;;;12.99;93.52;99105.00;5134995;27;20084;-94
2022/12/05 10:36:25;;;;;;;18.25;6.93;;;;;;;13.13;95.04;99110.78;5131919;27;20043;-93
2022/12/05 10:38:55;;;;;;;16.42;7.43;;;;;;;13.01;95.27;99090.72;5133613;27;20043;-92
2022/12/05 10:41:30;;;;;;;12.30;4.50;;;;;;;12.91;94.34;99074.09;5134410;27;20111;-93
2022/12/05 10:44:19;;;;;;;13.00;4.25;;;;;;;12.87;94.27;99060.91;5131283;27;20475;-92
2022/12/05 10:46:51;;;;;;;13.55;4.45;;;;;;;12.99;94.03;99078.31;5121111;27;20092;-94
2022/12/05 10:49:20;;;;;;;11.65;5.00;;;;;;;13.03;94.64;99064.81;5133740;27;20053;-95
2022/12/05 10:51:49;;;;;;;22.40;7.05;;;;;;;13.20;94.19;99069.59;5133764;27;20506;-93
2022/12/05 10:54:19;;;;;;;13.25;4.85;;;;;;;13.25;93.29;99048.97;5126420;27;20039;-93
2022/12/05 10:56:52;;;;;;;11.07;4.53;;;;;;;13.52;90.92;99086.41;5133587;27;20050;-92
2022/12/05 10:59:26;;;;;;;10.82;4.07;;;;;;;13.25;90.84;99040.97;5133158;27;20455;-93
2022/12/05 11:01:54;;;;;;;11.68;5.07;;;;;;;13.30;91.52;99055.06;5129531;28;20039;-93
2022/12/05 11:04:27;;;;;;;13.05;6.07;;;;;;;13.36;90.76;99048.66;5132445;28;20035;-93
2022/12/05 11:06:58;;;;;;;17.95;7.78;;;;;;;13.62;91.47;99077.16;5130143;28;20039;-94
2022/12/05 11:09:38;;;;;;;10.38;4.28;;;;;;;13.59;90.43;99046.97;5132177;28;20043;-93
2022/12/05 11:12:19;;;;;;;15.60;4.10;;;;;;;13.74;88.68;99041.94;5131410;28;20046;-91
2022/12/05 11:15:01;;;;;;;12.35;4.10;;;;;;;13.98;89.51;99053.56;5133249;28;20545;-93
2022/12/05 11:17:35;;;;;;;15.32;4.90;;;;;;;14.00;88.12;99025.91;5131634;28;20053;-93
2022/12/05 11:20:30;;;;;;;14.30;4.55;;;;;;;14.20;86.67;99041.22;5131990;28;20488;-93
2022/12/05 11:23:20;;;;;;;12.93;5.80;;;;;;;14.27;87.13;99040.03;5130464;28;20031;-91
2022/12/05 11:25:51;;;;;;;10.65;3.83;;;;;;;14.22;85.06;99039.34;5131384;28;20051;-92
2022/12/05 11:28:35;;;;;;;14.20;4.78;;;;;;;14.27;85.55;99026.66;5131086;28;20114;-93
2022/12/05 11:31:05;;;;;;;11.27;4.47;;;;;;;14.16;86.49;99003.00;5130138;28;20043;-93
2022/12/05 11:33:37;;;;;;;10.95;4.00;;;;;;;14.08;85.82;99031.84;5131779;28;20043;-91
2022/12/05 11:36:17;;;;;;;12.20;4.28;;;;;;;14.08;87.58;99038.06;5131566;28;20035;-94
2022/12/05 11:38:50;;;;;;;14.15;4.18;;;;;;;13.87;86.53;99009.44;5131076;28;20039;-93
2022/12/05 11:41:45;;;;;;;12.60;3.80;;;;;;;13.67;86.77;98995.00;5131176;28;20042;-93
2022/12/05 11:44:25;;;;;;;12.18;4.20;;;;;;;13.79;86.52;99024.88;5131446;28;20039;-90
2022/12/05 11:47:04;;;;;;;9.52;4.00;;;;;;;13.74;86.09;99020.56;5130173;28;20119;-91
2022/12/05 11:50:02;;;;;;;12.05;4.28;;;;;;;13.51;86.14;98975.09;5132776;27;20062;-94
2022/12/05 11:52:41;;;;;;;9.23;3.97;;;;;;;13.53;87.13;98976.81;5129660;27;20442;-92
2022/12/05 11:55:21;;;;;;;16.48;5.15;;;;;;;13.39;87.23;98959.53;5134970;27;20035;-92
2022/12/05 11:58:26;;;;;;;14.40;4.90;;;;;;;13.44;87.77;98965.56;5135196;27;20670;-93
2022/12/05 12:01:07;;;;;;;11.57;4.30;;;;;;;13.56;88.67;98981.16;5075498;28;20040;-93
2022/12/05 12:03:59;;;;;;;14.52;4.47;;;;;;;13.38;88.27;98950.66;5075109;28;20048;-93